Time;durP1;ratioP1;P1;durP2;ratioP2;P2;SDS_P1;SDS_P2;PMS_P1;PMS_P2;Temp;Humidity;BMP_temperature;BMP_pressure;BME280_temperature;BME280_humidity;BME280_pressure;Samples;Min_cycle;Max_cycle;Signal;HPM_P1;HPM_P2
2021/11/13 00:00:49;;;;;;;4.43;1.95;;;;;;;;;;5010553;28;20088;-73
2021/11/13 00:03:15;;;;;;;8.10;2.90;;;;;;;;;;5009804;28;20451;-72
2021/11/13 00:05:42;;;;;;;1.83;1.60;;;;;;;;;;5011475;28;20057;-72
2021/11/13 00:08:08;;;;;;;8.48;2.85;;;;;;;;;;5008618;28;20030;-72
2021/11/13 00:10:34;;;;;;;3.65;2.25;;;;;;;;;;5006593;28;20540;-72
2021/11/13 00:13:00;;;;;;;1.98;1.88;;;;;;;;;;5008730;28;20128;-72
2021/11/13 00:15:27;;;;;;;1.10;1.08;;;;;;;;;;5007074;28;20022;-72
2021/11/13 00:17:53;;;;;;;1.98;1.85;;;;;;;;;;5005296;28;20021;-72
2021/11/13 00:20:21;;;;;;;2.70;1.70;;;;;;;;;;5016256;28;20064;-73
2021/11/13 00:22:47;;;;;;;2.13;1.98;;;;;;;;;;5022209;28;20026;-73
2021/11/13 00:25:13;;;;;;;3.55;2.30;;;;;;;;;;5010900;28;20033;-73
2021/11/13 00:27:39;;;;;;;6.65;3.10;;;;;;;;;;5010643;28;20050;-73
2021/11/13 00:30:06;;;;;;;0.95;0.95;;;;;;;;;;5011121;28;20037;-73
2021/11/13 00:32:32;;;;;;;2.05;1.95;;;;;;;;;;5009766;28;20034;-72
2021/11/13 00:34:58;;;;;;;3.13;2.08;;;;;;;;;;5008267;28;20056;-73
2021/11/13 00:37:24;;;;;;;5.53;2.15;;;;;;;;;;5007161;28;20481;-73
2021/11/13 00:39:50;;;;;;;3.15;2.78;;;;;;;;;;5010287;28;20026;-73
2021/11/13 00:42:16;;;;;;;8.65;2.67;;;;;;;;;;5008907;28;20026;-73
2021/11/13 00:44:42;;;;;;;1.30;1.30;;;;;;;;;;5005894;28;20048;-71
2021/11/13 00:47:08;;;;;;;1.20;1.13;;;;;;;;;;5007512;28;20033;-72
2021/11/13 00:49:34;;;;;;;7.90;3.45;;;;;;;;;;5010938;28;20021;-72
2021/11/13 00:52:00;;;;;;;6.38;3.63;;;;;;;;;;5008660;28;20034;-73
2021/11/13 00:54:26;;;;;;;1.48;1.42;;;;;;;;;;5010216;28;20022;-72
2021/11/13 00:56:52;;;;;;;1.55;1.45;;;;;;;;;;5008532;28;20381;-72
2021/11/13 00:59:18;;;;;;;1.00;1.00;;;;;;;;;;5001937;28;20489;-73
2021/11/13 01:01:44;;;;;;;7.57;2.00;;;;;;;;;;5010969;28;20144;-72
2021/11/13 01:04:11;;;;;;;1.42;1.35;;;;;;;;;;5009998;28;20540;-72
2021/11/13 01:06:37;;;;;;;5.00;2.30;;;;;;;;;;5009897;28;20401;-72
2021/11/13 01:09:03;;;;;;;12.50;2.95;;;;;;;;;;5010455;28;20112;-72
2021/11/13 01:11:29;;;;;;;3.88;1.83;;;;;;;;;;5010076;28;20030;-72
2021/11/13 01:13:56;;;;;;;5.70;2.28;;;;;;;;;;5009776;28;20069;-72
2021/11/13 01:16:22;;;;;;;1.17;1.17;;;;;;;;;;5015007;28;20112;-72
2021/11/13 01:18:49;;;;;;;1.20;1.20;;;;;;;;;;5009972;28;20535;-72
2021/11/13 01:21:17;;;;;;;1.52;1.45;;;;;;;;;;5002228;28;20033;-73
2021/11/13 01:23:44;;;;;;;1.83;1.73;;;;;;;;;;5007452;28;20041;-73
2021/11/13 01:26:10;;;;;;;1.75;1.65;;;;;;;;;;5010288;28;20033;-73
2021/11/13 01:28:36;;;;;;;2.22;1.85;;;;;;;;;;5015217;28;20029;-73
2021/11/13 01:31:02;;;;;;;8.10;2.72;;;;;;;;;;5009546;28;20053;-73
2021/11/13 01:33:28;;;;;;;0.88;0.88;;;;;;;;;;5009092;28;20500;-73
2021/11/13 01:35:54;;;;;;;1.23;1.15;;;;;;;;;;5007190;28;20018;-73
2021/11/13 01:38:20;;;;;;;1.63;1.52;;;;;;;;;;5009815;28;20485;-73
2021/11/13 01:40:46;;;;;;;3.38;2.25;;;;;;;;;;5007471;28;20022;-73
2021/11/13 01:43:12;;;;;;;1.38;1.38;;;;;;;;;;5009454;28;20515;-73
2021/11/13 01:45:38;;;;;;;3.17;2.58;;;;;;;;;;5006103;28;20125;-73
2021/11/13 01:48:04;;;;;;;2.90;2.38;;;;;;;;;;5007531;28;20038;-73
2021/11/13 01:50:35;;;;;;;5.50;2.00;;;;;;;;;;5008391;28;20029;-73
2021/11/13 01:53:01;;;;;;;1.42;1.23;;;;;;;;;;5002290;28;20389;-73
2021/11/13 01:55:29;;;;;;;1.55;1.38;;;;;;;;;;5002940;28;20033;-72
2021/11/13 01:57:56;;;;;;;1.33;1.23;;;;;;;;;;5013495;28;20473;-73
2021/11/13 02:00:31;;;;;;;1.05;0.95;;;;;;;;;;5009430;28;20057;-73
2021/11/13 02:02:57;;;;;;;4.72;2.55;;;;;;;;;;5015558;28;20037;-73
2021/11/13 02:05:23;;;;;;;4.15;3.03;;;;;;;;;;5007587;28;20180;-73
2021/11/13 02:07:49;;;;;;;2.05;1.60;;;;;;;;;;5009265;28;20529;-73
2021/11/13 02:10:17;;;;;;;0.90;0.90;;;;;;;;;;5008715;28;20030;-73
2021/11/13 02:12:43;;;;;;;0.68;0.65;;;;;;;;;;5009381;28;20076;-73
2021/11/13 02:15:09;;;;;;;0.65;0.65;;;;;;;;;;5006834;28;20456;-73
2021/11/13 02:17:35;;;;;;;5.72;3.28;;;;;;;;;;5007334;28;20026;-73
2021/11/13 02:20:20;;;;;;;0.98;0.98;;;;;;;;;;5007702;28;20029;-74
2021/11/13 02:22:47;;;;;;;1.50;0.90;;;;;;;;;;5004306;28;20562;-73
2021/11/13 02:25:17;;;;;;;2.50;2.05;;;;;;;;;;5004928;28;20121;-73
2021/11/13 02:27:43;;;;;;;2.25;1.80;;;;;;;;;;5008798;28;20499;-73
2021/11/13 02:30:09;;;;;;;0.57;0.57;;;;;;;;;;5005479;28;20041;-73
2021/11/13 02:32:36;;;;;;;0.98;0.95;;;;;;;;;;5005979;28;20064;-74
2021/11/13 02:35:02;;;;;;;2.05;1.92;;;;;;;;;;5007100;28;20018;-73
2021/11/13 02:37:28;;;;;;;1.65;1.52;;;;;;;;;;5008353;28;20076;-73
2021/11/13 02:39:55;;;;;;;2.65;2.22;;;;;;;;;;5009264;28;20040;-74
2021/11/13 02:42:22;;;;;;;2.50;2.30;;;;;;;;;;5008495;28;20040;-73
2021/11/13 02:44:50;;;;;;;3.67;3.13;;;;;;;;;;5007142;28;20477;-73
2021/11/13 02:47:16;;;;;;;0.77;0.77;;;;;;;;;;4996285;28;20033;-73
2021/11/13 02:49:42;;;;;;;6.63;2.25;;;;;;;;;;5008521;28;20041;-73
2021/11/13 02:52:08;;;;;;;3.60;1.88;;;;;;;;;;5004337;28;20542;-73
2021/11/13 02:54:34;;;;;;;5.32;3.22;;;;;;;;;;5007069;28;20113;-73
2021/11/13 02:57:00;;;;;;;0.82;0.82;;;;;;;;;;5007432;28;20026;-73
2021/11/13 02:59:26;;;;;;;2.67;1.52;;;;;;;;;;5008916;28;20188;-73
2021/11/13 03:01:52;;;;;;;5.20;1.77;;;;;;;;;;5009070;28;20596;-72
2021/11/13 03:04:18;;;;;;;2.00;1.48;;;;;;;;;;5006909;28;20037;-73
2021/11/13 03:06:44;;;;;;;1.27;0.95;;;;;;;;;;5006831;28;20054;-74
2021/11/13 03:09:10;;;;;;;2.35;1.85;;;;;;;;;;5007991;28;20057;-73
2021/11/13 03:11:36;;;;;;;1.50;1.40;;;;;;;;;;5008838;28;20077;-73
2021/11/13 03:14:02;;;;;;;2.03;1.80;;;;;;;;;;5006829;28;20052;-73
2021/11/13 03:16:28;;;;;;;2.63;2.17;;;;;;;;;;5008272;28;20072;-73
2021/11/13 03:18:54;;;;;;;1.77;1.67;;;;;;;;;;5005572;28;20358;-73
2021/11/13 03:21:20;;;;;;;3.03;1.35;;;;;;;;;;5007986;28;20041;-73
2021/11/13 03:23:47;;;;;;;1.70;1.60;;;;;;;;;;5009086;28;20753;-73
2021/11/13 03:26:21;;;;;;;4.20;1.63;;;;;;;;;;5000054;28;20034;-72
2021/11/13 03:28:52;;;;;;;2.38;2.20;;;;;;;;;;5011267;28;20030;-72
2021/11/13 03:31:22;;;;;;;1.15;1.15;;;;;;;;;;5009522;28;20366;-72
2021/11/13 03:33:48;;;;;;;4.00;1.17;;;;;;;;;;5009826;28;20033;-73
2021/11/13 03:36:17;;;;;;;1.05;1.05;;;;;;;;;;5012218;28;20026;-72
2021/11/13 03:38:43;;;;;;;2.78;1.85;;;;;;;;;;5011903;28;20037;-73
2021/11/13 03:41:09;;;;;;;3.20;2.95;;;;;;;;;;5010575;28;20030;-72
2021/11/13 03:43:36;;;;;;;2.75;1.92;;;;;;;;;;5012107;28;20026;-73
2021/11/13 03:46:03;;;;;;;1.73;1.58;;;;;;;;;;5010601;28;20026;-73
2021/11/13 03:48:29;;;;;;;5.03;3.10;;;;;;;;;;5005748;28;20026;-73
2021/11/13 03:50:55;;;;;;;8.93;2.33;;;;;;;;;;5009474;28;20504;-74
2021/11/13 03:53:21;;;;;;;1.20;1.13;;;;;;;;;;5008951;28;20119;-73
2021/11/13 03:55:47;;;;;;;3.95;2.65;;;;;;;;;;5011869;28;20052;-73
2021/11/13 03:58:13;;;;;;;2.30;2.13;;;;;;;;;;5015439;28;20037;-73
2021/11/13 04:00:39;;;;;;;2.00;1.67;;;;;;;;;;5010977;28;20030;-73
2021/11/13 04:03:05;;;;;;;4.22;2.65;;;;;;;;;;5010798;28;20037;-73
2021/11/13 04:05:31;;;;;;;2.70;2.40;;;;;;;;;;5016435;28;20029;-73
2021/11/13 04:07:57;;;;;;;1.42;1.33;;;;;;;;;;5013642;28;20038;-73
2021/11/13 04:10:23;;;;;;;2.88;2.67;;;;;;;;;;5010630;28;20034;-73
2021/11/13 04:12:49;;;;;;;4.70;3.63;;;;;;;;;;5011385;28;20349;-73
2021/11/13 04:15:15;;;;;;;0.75;0.75;;;;;;;;;;5006233;28;20426;-73
2021/11/13 04:17:42;;;;;;;7.50;1.95;;;;;;;;;;5009964;28;20133;-73
2021/11/13 04:20:09;;;;;;;1.95;1.77;;;;;;;;;;5010652;28;20026;-73
2021/11/13 04:22:36;;;;;;;0.63;0.63;;;;;;;;;;5010974;28;20057;-73
2021/11/13 04:25:02;;;;;;;18.58;4.28;;;;;;;;;;5009581;28;20026;-73
2021/11/13 04:27:28;;;;;;;1.60;1.08;;;;;;;;;;5011655;28;20100;-73
2021/11/13 04:29:54;;;;;;;3.10;2.38;;;;;;;;;;5010934;28;20038;-73
2021/11/13 04:32:20;;;;;;;2.25;2.15;;;;;;;;;;5017779;28;20028;-73
2021/11/13 04:35:02;;;;;;;1.73;1.35;;;;;;;;;;5007929;28;20056;-73
2021/11/13 04:37:29;;;;;;;1.10;1.00;;;;;;;;;;5010780;28;20045;-73
2021/11/13 04:39:56;;;;;;;3.10;1.88;;;;;;;;;;5010904;28;20039;-73
2021/11/13 04:42:22;;;;;;;2.15;1.98;;;;;;;;;;5011864;28;20030;-73
2021/11/13 04:44:49;;;;;;;9.95;3.00;;;;;;;;;;5009896;28;20671;-73
2021/11/13 04:47:16;;;;;;;1.65;1.23;;;;;;;;;;5010142;28;20088;-73
2021/11/13 04:49:42;;;;;;;2.42;2.17;;;;;;;;;;5010947;28;20022;-73
2021/11/13 04:52:08;;;;;;;1.27;0.70;;;;;;;;;;5008079;28;20026;-73
2021/11/13 04:54:35;;;;;;;0.75;0.68;;;;;;;;;;5012759;28;20079;-73
2021/11/13 04:57:01;;;;;;;5.25;2.63;;;;;;;;;;5008686;28;20029;-73
2021/11/13 04:59:27;;;;;;;2.08;1.58;;;;;;;;;;5008497;28;20049;-73
2021/11/13 05:01:53;;;;;;;1.75;1.35;;;;;;;;;;5011941;28;20025;-73
2021/11/13 05:04:19;;;;;;;1.73;1.60;;;;;;;;;;5009742;28;20060;-74
2021/11/13 05:06:45;;;;;;;1.42;1.40;;;;;;;;;;5008342;28;20052;-73
2021/11/13 05:09:11;;;;;;;5.18;1.42;;;;;;;;;;5010129;28;20168;-72
2021/11/13 05:11:37;;;;;;;0.60;0.60;;;;;;;;;;5008328;28;20026;-73
2021/11/13 05:14:03;;;;;;;2.53;1.52;;;;;;;;;;5006461;28;20034;-73
2021/11/13 05:16:29;;;;;;;1.25;1.20;;;;;;;;;;5009230;28;20033;-73
2021/11/13 05:18:55;;;;;;;3.95;1.92;;;;;;;;;;5006508;28;20124;-73
2021/11/13 05:21:21;;;;;;;2.42;2.15;;;;;;;;;;5009884;28;20022;-73
2021/11/13 05:23:47;;;;;;;0.82;0.75;;;;;;;;;;5010839;28;20022;-73
2021/11/13 05:26:13;;;;;;;1.27;1.13;;;;;;;;;;5009434;28;20432;-73
2021/11/13 05:28:43;;;;;;;1.77;1.15;;;;;;;;;;5010302;28;20034;-73
2021/11/13 05:31:10;;;;;;;5.45;2.95;;;;;;;;;;5009403;28;20088;-73
2021/11/13 05:33:36;;;;;;;0.52;0.52;;;;;;;;;;5006208;28;20143;-73
2021/11/13 05:36:02;;;;;;;1.42;1.27;;;;;;;;;;5010602;28;20164;-73
2021/11/13 05:38:28;;;;;;;1.38;1.38;;;;;;;;;;5010360;28;20064;-73
2021/11/13 05:40:54;;;;;;;3.08;2.80;;;;;;;;;;5009988;28;20055;-73
2021/11/13 05:43:20;;;;;;;0.82;0.82;;;;;;;;;;5008880;28;20125;-73
2021/11/13 05:45:47;;;;;;;4.57;2.40;;;;;;;;;;5004446;28;20092;-73
2021/11/13 05:48:14;;;;;;;0.93;0.93;;;;;;;;;;5009586;28;20033;-73
2021/11/13 05:50:40;;;;;;;3.83;2.03;;;;;;;;;;5008097;28;20321;-73
2021/11/13 05:53:06;;;;;;;0.55;0.55;;;;;;;;;;5005020;28;20089;-73
2021/11/13 05:55:31;;;;;;;1.95;1.58;;;;;;;;;;5008730;28;20034;-73
2021/11/13 05:57:57;;;;;;;3.17;2.33;;;;;;;;;;5016398;28;20018;-73
2021/11/13 06:00:24;;;;;;;2.55;1.88;;;;;;;;;;5005617;28;20038;-73
2021/11/13 06:02:50;;;;;;;0.55;0.55;;;;;;;;;;5012730;28;20619;-73
2021/11/13 06:05:17;;;;;;;0.50;0.50;;;;;;;;;;5005308;28;20030;-73
2021/11/13 06:07:43;;;;;;;21.17;2.42;;;;;;;;;;5009651;28;20108;-73
2021/11/13 06:10:10;;;;;;;1.60;1.38;;;;;;;;;;5006414;28;20623;-73
2021/11/13 06:12:36;;;;;;;2.97;1.52;;;;;;;;;;5006257;28;20112;-73
2021/11/13 06:15:02;;;;;;;0.85;0.85;;;;;;;;;;5012774;28;20103;-72
2021/11/13 06:17:29;;;;;;;2.50;1.75;;;;;;;;;;5012947;28;20108;-73
2021/11/13 06:19:55;;;;;;;2.28;1.13;;;;;;;;;;5007609;28;20018;-73
2021/11/13 06:22:21;;;;;;;2.70;1.60;;;;;;;;;;5005960;28;20117;-73
2021/11/13 06:24:47;;;;;;;1.13;1.13;;;;;;;;;;5008447;28;20425;-73
2021/11/13 06:27:15;;;;;;;1.33;1.23;;;;;;;;;;5008336;28;20033;-72
2021/11/13 06:29:41;;;;;;;2.83;2.33;;;;;;;;;;5008635;28;20030;-73
2021/11/13 06:32:07;;;;;;;3.38;1.30;;;;;;;;;;5008421;28;20034;-73
2021/11/13 06:34:33;;;;;;;1.88;1.77;;;;;;;;;;5007627;28;20028;-73
2021/11/13 06:36:59;;;;;;;11.50;3.40;;;;;;;;;;5004950;28;20032;-73
2021/11/13 06:39:25;;;;;;;3.15;1.77;;;;;;;;;;5005254;28;20040;-73
2021/11/13 06:41:51;;;;;;;7.32;3.55;;;;;;;;;;5008138;28;20032;-73
2021/11/13 06:44:17;;;;;;;1.00;1.00;;;;;;;;;;5008132;28;20105;-73
2021/11/13 06:46:43;;;;;;;3.63;2.25;;;;;;;;;;5006608;28;20061;-73
2021/11/13 06:49:09;;;;;;;0.90;0.88;;;;;;;;;;5000570;28;20061;-73
2021/11/13 06:51:35;;;;;;;11.07;1.92;;;;;;;;;;5002820;28;20117;-73
2021/11/13 06:54:01;;;;;;;6.15;2.00;;;;;;;;;;5008108;28;20025;-73
2021/11/13 06:56:27;;;;;;;2.15;1.67;;;;;;;;;;5013406;28;20037;-73
2021/11/13 06:58:53;;;;;;;2.40;1.42;;;;;;;;;;5012659;28;20042;-73
2021/11/13 07:01:19;;;;;;;2.65;2.45;;;;;;;;;;5011403;28;20030;-72
2021/11/13 07:03:45;;;;;;;2.42;1.45;;;;;;;;;;5006409;28;20053;-73
2021/11/13 07:06:11;;;;;;;1.70;0.75;;;;;;;;;;5011221;28;20034;-71
2021/11/13 07:08:37;;;;;;;1.25;1.17;;;;;;;;;;5012991;28;20029;-71
2021/11/13 07:11:03;;;;;;;0.52;0.52;;;;;;;;;;5012096;28;20058;-71
2021/11/13 07:13:29;;;;;;;1.33;1.27;;;;;;;;;;5018425;28;20041;-71
2021/11/13 07:15:55;;;;;;;2.15;1.92;;;;;;;;;;5011519;28;20038;-72
2021/11/13 07:18:21;;;;;;;2.53;1.42;;;;;;;;;;5010876;28;20034;-72
2021/11/13 07:20:51;;;;;;;1.17;0.93;;;;;;;;;;5011513;28;20029;-71
2021/11/13 07:23:17;;;;;;;0.60;0.60;;;;;;;;;;5011857;28;20028;-72
2021/11/13 07:25:43;;;;;;;1.98;1.40;;;;;;;;;;5010904;28;20026;-72
2021/11/13 07:28:14;;;;;;;4.97;1.73;;;;;;;;;;5008660;28;20159;-72
2021/11/13 07:30:41;;;;;;;2.80;1.15;;;;;;;;;;5012173;28;20049;-72
2021/11/13 07:33:08;;;;;;;3.40;2.67;;;;;;;;;;5010192;28;20030;-71
2021/11/13 07:35:35;;;;;;;0.85;0.85;;;;;;;;;;5010604;28;20046;-72
2021/11/13 07:38:01;;;;;;;1.80;1.70;;;;;;;;;;5004381;28;20551;-70
2021/11/13 07:40:27;;;;;;;1.58;1.48;;;;;;;;;;5010923;28;20029;-71
2021/11/13 07:42:53;;;;;;;1.73;1.20;;;;;;;;;;5011458;28;20085;-71
2021/11/13 07:45:19;;;;;;;3.60;1.90;;;;;;;;;;5011004;28;20026;-71
2021/11/13 07:47:45;;;;;;;0.63;0.63;;;;;;;;;;5009029;28;20128;-71
2021/11/13 07:50:12;;;;;;;3.88;1.83;;;;;;;;;;5008487;28;20388;-72
2021/11/13 07:52:39;;;;;;;2.95;1.05;;;;;;;;;;5010882;28;20042;-70
2021/11/13 07:55:05;;;;;;;1.98;1.20;;;;;;;;;;5011002;28;20129;-72
2021/11/13 07:57:31;;;;;;;0.65;0.63;;;;;;;;;;5012635;28;20084;-70
2021/11/13 07:59:57;;;;;;;2.78;2.10;;;;;;;;;;5010572;28;20038;-71
2021/11/13 08:02:23;;;;;;;2.13;1.70;;;;;;;;;;5013523;28;20038;-71
2021/11/13 08:04:50;;;;;;;0.47;0.47;;;;;;;;;;5004415;28;20633;-72
2021/11/13 08:07:16;;;;;;;1.48;0.80;;;;;;;;;;5014028;28;20056;-71
2021/11/13 08:09:42;;;;;;;0.28;0.28;;;;;;;;;;5013516;28;20065;-71
2021/11/13 08:12:08;;;;;;;0.85;0.85;;;;;;;;;;5009723;28;20025;-71
2021/11/13 08:14:34;;;;;;;15.80;2.63;;;;;;;;;;5018472;28;20029;-71
2021/11/13 08:17:00;;;;;;;7.50;2.25;;;;;;;;;;5018991;28;20087;-70
2021/11/13 08:19:26;;;;;;;5.28;1.75;;;;;;;;;;5015589;28;20025;-71
2021/11/13 08:21:52;;;;;;;1.35;0.85;;;;;;;;;;5009095;28;20523;-71
2021/11/13 08:24:20;;;;;;;0.43;0.43;;;;;;;;;;5018212;28;20018;-71
2021/11/13 08:26:46;;;;;;;0.77;0.77;;;;;;;;;;5017199;28;20040;-71
2021/11/13 08:29:12;;;;;;;2.08;1.08;;;;;;;;;;5017117;28;20037;-71
2021/11/13 08:31:38;;;;;;;0.45;0.45;;;;;;;;;;5017726;28;20041;-72
2021/11/13 08:34:04;;;;;;;0.70;0.70;;;;;;;;;;5017473;28;20031;-71
2021/11/13 08:36:30;;;;;;;7.32;2.22;;;;;;;;;;5015982;28;20025;-71
2021/11/13 08:38:56;;;;;;;2.60;1.02;;;;;;;;;;5015214;28;20494;-71
2021/11/13 08:41:22;;;;;;;2.45;1.75;;;;;;;;;;5008642;28;20113;-70
2021/11/13 08:43:48;;;;;;;1.05;0.75;;;;;;;;;;5016726;28;20025;-72
2021/11/13 08:46:14;;;;;;;2.28;1.48;;;;;;;;;;5017978;28;20025;-71
2021/11/13 08:48:40;;;;;;;0.57;0.57;;;;;;;;;;5018810;28;20121;-70
2021/11/13 08:51:06;;;;;;;1.20;0.82;;;;;;;;;;5017627;28;20029;-71
2021/11/13 08:53:32;;;;;;;0.73;0.73;;;;;;;;;;5017896;28;20032;-71
2021/11/13 08:55:58;;;;;;;0.80;0.80;;;;;;;;;;5015992;28;20112;-71
2021/11/13 08:58:24;;;;;;;1.15;1.05;;;;;;;;;;5016763;28;20632;-71
2021/11/13 09:01:02;;;;;;;0.85;0.85;;;;;;;;;;5018347;28;20469;-70
2021/11/13 09:03:30;;;;;;;1.58;1.27;;;;;;;;;;5014408;28;20041;-71
2021/11/13 09:05:57;;;;;;;1.23;1.17;;;;;;;;;;5016605;28;20484;-71
2021/11/13 09:08:24;;;;;;;1.42;1.33;;;;;;;;;;5018016;28;20025;-71
2021/11/13 09:10:51;;;;;;;1.80;1.60;;;;;;;;;;5016899;28;20484;-71
2021/11/13 09:13:21;;;;;;;6.40;1.95;;;;;;;;;;5016576;28;20033;-70
2021/11/13 09:15:47;;;;;;;1.95;1.75;;;;;;;;;;5019287;28;20030;-70
2021/11/13 09:18:13;;;;;;;0.68;0.68;;;;;;;;;;5014980;28;20033;-71
2021/11/13 09:20:40;;;;;;;1.42;1.33;;;;;;;;;;5016751;28;20029;-71
2021/11/13 09:23:07;;;;;;;0.22;0.22;;;;;;;;;;5015016;28;20034;-70
2021/11/13 09:25:33;;;;;;;2.47;2.10;;;;;;;;;;5017917;28;20032;-71
2021/11/13 09:27:59;;;;;;;2.90;1.80;;;;;;;;;;5016799;28;20038;-71
2021/11/13 09:30:28;;;;;;;3.40;1.70;;;;;;;;;;5012431;28;20057;-71
2021/11/13 09:32:54;;;;;;;1.15;1.13;;;;;;;;;;5016813;28;20453;-71
2021/11/13 09:35:21;;;;;;;3.17;1.45;;;;;;;;;;5013803;28;20029;-70
2021/11/13 09:37:47;;;;;;;1.00;1.00;;;;;;;;;;5016767;28;20037;-70
2021/11/13 09:40:16;;;;;;;0.35;0.35;;;;;;;;;;5016144;28;20121;-70
2021/11/13 09:42:44;;;;;;;2.90;2.15;;;;;;;;;;5017158;28;20681;-70
2021/11/13 09:45:10;;;;;;;0.10;0.10;;;;;;;;;;5017573;28;20153;-71
2021/11/13 09:47:36;;;;;;;1.45;1.45;;;;;;;;;;5015200;28;20495;-70
2021/11/13 09:50:03;;;;;;;1.25;1.15;;;;;;;;;;5015409;28;20080;-70
2021/11/13 09:52:29;;;;;;;0.85;0.85;;;;;;;;;;5014988;28;20050;-71
2021/11/13 09:54:55;;;;;;;1.35;1.25;;;;;;;;;;5016346;28;20025;-71
2021/11/13 09:57:23;;;;;;;1.10;0.68;;;;;;;;;;5016765;28;20026;-72
2021/11/13 09:59:49;;;;;;;4.47;2.83;;;;;;;;;;5012585;28;20697;-71
2021/11/13 10:02:15;;;;;;;7.43;1.38;;;;;;;;;;5017748;28;20025;-72
2021/11/13 10:04:41;;;;;;;1.75;1.60;;;;;;;;;;5013698;28;20729;-70
2021/11/13 10:07:07;;;;;;;0.88;0.88;;;;;;;;;;5014133;28;20029;-70
2021/11/13 10:09:33;;;;;;;2.83;0.73;;;;;;;;;;5015228;28;20080;-69
2021/11/13 10:11:59;;;;;;;0.98;0.93;;;;;;;;;;5014891;28;20034;-70
2021/11/13 10:14:31;;;;;;;1.17;1.13;;;;;;;;;;5015672;28;20029;-69
2021/11/13 10:16:57;;;;;;;1.90;1.80;;;;;;;;;;5014050;28;20107;-70
2021/11/13 10:19:23;;;;;;;1.33;1.23;;;;;;;;;;5015707;28;20480;-70
2021/11/13 10:21:53;;;;;;;0.85;0.85;;;;;;;;;;5014055;28;20388;-70
2021/11/13 10:24:20;;;;;;;1.45;1.05;;;;;;;;;;5016264;28;20038;-70
2021/11/13 10:26:48;;;;;;;1.65;1.40;;;;;;;;;;5013631;28;20033;-70
2021/11/13 10:29:15;;;;;;;2.60;2.40;;;;;;;;;;5016747;28;20103;-70
2021/11/13 10:31:48;;;;;;;4.97;1.98;;;;;;;;;;5016120;28;20037;-70
2021/11/13 10:34:18;;;;;;;2.05;1.05;;;;;;;;;;5014772;28;20051;-69
2021/11/13 10:36:46;;;;;;;0.80;0.75;;;;;;;;;;5012941;28;20021;-70
2021/11/13 10:39:14;;;;;;;0.65;0.57;;;;;;;;;;5015993;28;20133;-70
2021/11/13 10:41:51;;;;;;;1.77;1.05;;;;;;;;;;5015818;28;20484;-69
2021/11/13 10:44:24;;;;;;;2.45;1.75;;;;;;;;;;5016657;28;20080;-69
2021/11/13 10:46:50;;;;;;;0.45;0.45;;;;;;;;;;5013914;28;20057;-69
2021/11/13 10:49:16;;;;;;;1.13;1.02;;;;;;;;;;5015348;28;20049;-69
2021/11/13 10:51:50;;;;;;;4.05;2.05;;;;;;;;;;5014987;28;20030;-69
2021/11/13 10:54:16;;;;;;;1.08;0.98;;;;;;;;;;5014489;28;20021;-69
2021/11/13 10:56:47;;;;;;;0.65;0.65;;;;;;;;;;5015564;28;20386;-70
2021/11/13 10:59:14;;;;;;;6.07;3.42;;;;;;;;;;5014475;28;20099;-68
2021/11/13 11:01:41;;;;;;;1.77;0.70;;;;;;;;;;5014824;28;20592;-69
2021/11/13 11:04:15;;;;;;;4.32;1.75;;;;;;;;;;5015536;28;20053;-73
2021/11/13 11:06:41;;;;;;;1.65;1.55;;;;;;;;;;5014775;28;20026;-74
2021/11/13 11:09:18;;;;;;;2.47;1.35;;;;;;;;;;5009777;28;20567;-72
2021/11/13 11:11:43;;;;;;;0.93;0.93;;;;;;;;;;5015210;28;20111;-72
2021/11/13 11:14:11;;;;;;;0.52;0.52;;;;;;;;;;5015963;28;20025;-72
2021/11/13 11:16:38;;;;;;;1.33;1.27;;;;;;;;;;5015784;28;20029;-72
2021/11/13 11:19:06;;;;;;;3.03;1.35;;;;;;;;;;5015001;28;20388;-72
2021/11/13 11:21:38;;;;;;;4.03;1.98;;;;;;;;;;5015647;28;20030;-72
2021/11/13 11:24:07;;;;;;;3.13;2.47;;;;;;;;;;5014498;28;20116;-72
2021/11/13 11:26:33;;;;;;;0.65;0.65;;;;;;;;;;5013359;28;20052;-73
2021/11/13 11:28:59;;;;;;;1.08;1.00;;;;;;;;;;5014020;28;20021;-73
2021/11/13 11:31:46;;;;;;;1.25;1.17;;;;;;;;;;5013884;28;20030;-73
2021/11/13 11:34:38;;;;;;;0.82;0.82;;;;;;;;;;5016472;28;20022;-72
2021/11/13 11:37:06;;;;;;;0.73;0.60;;;;;;;;;;5012053;28;20045;-73
2021/11/13 11:39:33;;;;;;;5.40;2.00;;;;;;;;;;5013495;28;20517;-72
2021/11/13 11:41:59;;;;;;;2.17;1.33;;;;;;;;;;5014316;28;20121;-72
2021/11/13 11:44:25;;;;;;;11.15;3.00;;;;;;;;;;5017498;28;20033;-72
2021/11/13 11:46:55;;;;;;;2.63;2.42;;;;;;;;;;5015372;28;20038;-72
2021/11/13 11:49:21;;;;;;;5.47;3.10;;;;;;;;;;5018048;28;20121;-73
2021/11/13 11:51:47;;;;;;;4.88;0.55;;;;;;;;;;5018137;28;20041;-73
2021/11/13 11:54:13;;;;;;;3.08;1.48;;;;;;;;;;5018030;28;20049;-73
2021/11/13 11:56:39;;;;;;;0.75;0.75;;;;;;;;;;5018404;28;20113;-73
2021/11/13 11:59:06;;;;;;;1.45;1.35;;;;;;;;;;5014280;28;20061;-72
2021/11/13 12:01:35;;;;;;;10.43;1.90;;;;;;;;;;5015741;28;20041;-72
2021/11/13 12:04:15;;;;;;;1.30;1.20;;;;;;;;;;5020208;28;20083;-73
2021/11/13 12:06:50;;;;;;;2.72;1.48;;;;;;;;;;5019445;28;20029;-73
2021/11/13 12:09:16;;;;;;;2.17;1.55;;;;;;;;;;5017891;28;20057;-72
2021/11/13 12:11:44;;;;;;;1.20;1.05;;;;;;;;;;5018487;28;20116;-72
2021/11/13 12:14:23;;;;;;;0.20;0.20;;;;;;;;;;5017786;28;20485;-72
2021/11/13 12:16:49;;;;;;;3.55;1.92;;;;;;;;;;5016698;28;20034;-72
2021/11/13 12:19:15;;;;;;;4.13;2.38;;;;;;;;;;5018208;28;20038;-73
2021/11/13 12:21:51;;;;;;;5.70;1.75;;;;;;;;;;5014688;28;20112;-73
2021/11/13 12:24:17;;;;;;;0.70;0.70;;;;;;;;;;5018158;28;20863;-73
2021/11/13 12:26:58;;;;;;;2.72;1.23;;;;;;;;;;5019025;28;20041;-72
2021/11/13 12:29:24;;;;;;;2.30;2.13;;;;;;;;;;5016152;28;20117;-72
2021/11/13 12:31:50;;;;;;;0.98;0.63;;;;;;;;;;5019061;28;20670;-73
2021/11/13 12:34:21;;;;;;;1.75;0.82;;;;;;;;;;5014965;28;20112;-73
2021/11/13 12:36:58;;;;;;;0.93;0.80;;;;;;;;;;5012556;28;20033;-72
2021/11/13 12:39:24;;;;;;;1.80;1.02;;;;;;;;;;5016461;28;20033;-74
2021/11/13 12:42:10;;;;;;;1.02;1.02;;;;;;;;;;5017060;28;20017;-74
2021/11/13 12:44:36;;;;;;;3.40;1.25;;;;;;;;;;5017667;28;20112;-73
2021/11/13 12:47:09;;;;;;;3.20;2.63;;;;;;;;;;5014793;28;20150;-73
2021/11/13 12:49:37;;;;;;;0.55;0.55;;;;;;;;;;5004622;28;20030;-73
2021/11/13 12:52:05;;;;;;;1.23;1.13;;;;;;;;;;5005950;28;20054;-73
2021/11/13 12:54:32;;;;;;;4.13;1.38;;;;;;;;;;5005147;28;20117;-70
2021/11/13 12:57:00;;;;;;;2.10;1.92;;;;;;;;;;5001314;28;20025;-69
2021/11/13 12:59:28;;;;;;;6.95;2.47;;;;;;;;;;5009963;28;20045;-68
2021/11/13 13:01:55;;;;;;;7.40;1.15;;;;;;;;;;5009854;28;20026;-70
2021/11/13 13:04:21;;;;;;;2.42;1.20;;;;;;;;;;5007733;28;20029;-70
2021/11/13 13:06:47;;;;;;;3.30;2.65;;;;;;;;;;5006675;28;20458;-69
2021/11/13 13:09:16;;;;;;;0.95;0.95;;;;;;;;;;5007962;28;20037;-69
2021/11/13 13:11:51;;;;;;;0.90;0.88;;;;;;;;;;5010503;28;20094;-69
2021/11/13 13:14:19;;;;;;;1.10;0.77;;;;;;;;;;5011240;28;20037;-69
2021/11/13 13:16:45;;;;;;;2.47;1.70;;;;;;;;;;5008660;28;20032;-69
2021/11/13 13:19:12;;;;;;;1.48;1.38;;;;;;;;;;5013006;28;20128;-69
2021/11/13 13:21:38;;;;;;;3.67;2.80;;;;;;;;;;5011440;28;20096;-69
2021/11/13 13:24:13;;;;;;;1.83;1.25;;;;;;;;;;5011089;28;20030;-69
2021/11/13 13:26:41;;;;;;;4.03;2.40;;;;;;;;;;5008921;28;20021;-69
2021/11/13 13:29:11;;;;;;;1.85;1.67;;;;;;;;;;5001288;28;20573;-69
2021/11/13 13:31:37;;;;;;;3.28;2.17;;;;;;;;;;5003751;28;20072;-70
2021/11/13 13:34:03;;;;;;;0.30;0.30;;;;;;;;;;5007445;28;20034;-69
2021/11/13 13:36:29;;;;;;;3.30;2.13;;;;;;;;;;5005785;28;20374;-69
2021/11/13 13:38:56;;;;;;;4.38;1.63;;;;;;;;;;5006952;28;20022;-70
2021/11/13 13:41:23;;;;;;;2.58;1.25;;;;;;;;;;5009363;28;20026;-69
2021/11/13 13:43:50;;;;;;;1.08;1.05;;;;;;;;;;5007839;28;20045;-69
2021/11/13 13:46:26;;;;;;;0.82;0.82;;;;;;;;;;5007773;28;20084;-68
2021/11/13 13:48:56;;;;;;;1.70;0.95;;;;;;;;;;5005622;28;20485;-70
2021/11/13 13:51:29;;;;;;;1.77;1.65;;;;;;;;;;5004598;28;20041;-70
2021/11/13 13:53:55;;;;;;;0.47;0.47;;;;;;;;;;5010097;28;20029;-69
2021/11/13 13:56:29;;;;;;;1.88;1.70;;;;;;;;;;5006231;28;20385;-69
2021/11/13 13:58:56;;;;;;;0.95;0.95;;;;;;;;;;5005331;28;20042;-71
2021/11/13 14:01:22;;;;;;;0.60;0.60;;;;;;;;;;5007192;28;20022;-70
2021/11/13 14:03:48;;;;;;;0.60;0.60;;;;;;;;;;5006194;28;20033;-70
2021/11/13 14:06:14;;;;;;;1.50;0.80;;;;;;;;;;5007645;28;20053;-69
2021/11/13 14:08:47;;;;;;;1.85;1.73;;;;;;;;;;5006314;28;20382;-70
2021/11/13 14:11:14;;;;;;;1.17;0.90;;;;;;;;;;5007145;28;20175;-70
2021/11/13 14:13:40;;;;;;;2.13;1.42;;;;;;;;;;5006281;28;20473;-69
2021/11/13 14:16:07;;;;;;;7.22;2.13;;;;;;;;;;5005903;28;20033;-71
2021/11/13 14:18:36;;;;;;;2.35;1.17;;;;;;;;;;5008291;28;20033;-69
2021/11/13 14:21:06;;;;;;;0.47;0.47;;;;;;;;;;5007229;28;20029;-70
2021/11/13 14:23:33;;;;;;;1.73;1.52;;;;;;;;;;5007881;28;20095;-69
2021/11/13 14:26:01;;;;;;;0.57;0.57;;;;;;;;;;5008087;28;20116;-70
2021/11/13 14:28:29;;;;;;;1.23;1.13;;;;;;;;;;5006638;28;20084;-69
2021/11/13 14:30:56;;;;;;;1.88;1.70;;;;;;;;;;5004467;28;20132;-69
2021/11/13 14:33:23;;;;;;;4.45;2.17;;;;;;;;;;5007468;28;20048;-70
2021/11/13 14:35:49;;;;;;;3.20;1.52;;;;;;;;;;5001188;28;20030;-70
2021/11/13 14:38:15;;;;;;;0.90;0.90;;;;;;;;;;5000508;28;20088;-69
2021/11/13 14:41:00;;;;;;;0.65;0.65;;;;;;;;;;5007161;28;20088;-73
2021/11/13 14:43:30;;;;;;;5.35;1.27;;;;;;;;;;5007651;28;20505;-76